sensor_id;sensor_type;location;lat;lon;timestamp;P1;durP1;ratioP1;P2;durP2;ratioP2
52210;SDS011;38179;52.756;6.906;2023-02-28T00:00:22;10.40;;;7.45;;
52210;SDS011;38179;52.756;6.906;2023-02-28T00:02:48;12.95;;;7.90;;
52210;SDS011;38179;52.756;6.906;2023-02-28T00:05:15;11.85;;;8.38;;
52210;SDS011;38179;52.756;6.906;2023-02-28T00:07:43;17.98;;;8.60;;
52210;SDS011;38179;52.756;6.906;2023-02-28T00:10:11;11.43;;;7.95;;
52210;SDS011;38179;52.756;6.906;2023-02-28T00:12:39;12.68;;;8.13;;
52210;SDS011;38179;52.756;6.906;2023-02-28T00:15:06;14.27;;;8.10;;
52210;SDS011;38179;52.756;6.906;2023-02-28T00:17:33;13.90;;;8.40;;
52210;SDS011;38179;52.756;6.906;2023-02-28T00:19:59;11.80;;;8.55;;
52210;SDS011;38179;52.756;6.906;2023-02-28T00:22:37;11.40;;;8.60;;
52210;SDS011;38179;52.756;6.906;2023-02-28T00:25:05;12.52;;;8.38;;
52210;SDS011;38179;52.756;6.906;2023-02-28T00:27:33;11.93;;;8.43;;
52210;SDS011;38179;52.756;6.906;2023-02-28T00:30:00;12.38;;;8.68;;
52210;SDS011;38179;52.756;6.906;2023-02-28T00:32:26;13.43;;;8.80;;
52210;SDS011;38179;52.756;6.906;2023-02-28T00:34:52;13.73;;;9.27;;
52210;SDS011;38179;52.756;6.906;2023-02-28T00:37:18;11.65;;;8.55;;
52210;SDS011;38179;52.756;6.906;2023-02-28T00:39:44;11.15;;;8.55;;
52210;SDS011;38179;52.756;6.906;2023-02-28T00:42:10;12.30;;;8.40;;
52210;SDS011;38179;52.756;6.906;2023-02-28T00:44:36;13.55;;;9.25;;
52210;SDS011;38179;52.756;6.906;2023-02-28T00:47:02;13.38;;;8.82;;
52210;SDS011;38179;52.756;6.906;2023-02-28T00:49:28;11.95;;;8.45;;
52210;SDS011;38179;52.756;6.906;2023-02-28T00:51:54;12.50;;;8.32;;
52210;SDS011;38179;52.756;6.906;2023-02-28T00:54:21;13.75;;;8.77;;
52210;SDS011;38179;52.756;6.906;2023-02-28T00:56:47;11.70;;;8.52;;
52210;SDS011;38179;52.756;6.906;2023-02-28T00:59:14;11.82;;;8.95;;
52210;SDS011;38179;52.756;6.906;2023-02-28T01:01:41;12.00;;;8.80;;
52210;SDS011;38179;52.756;6.906;2023-02-28T01:04:07;12.73;;;8.80;;
52210;SDS011;38179;52.756;6.906;2023-02-28T01:06:33;12.25;;;8.50;;
52210;SDS011;38179;52.756;6.906;2023-02-28T01:08:59;14.05;;;8.75;;
52210;SDS011;38179;52.756;6.906;2023-02-28T01:11:25;11.43;;;8.52;;
52210;SDS011;38179;52.756;6.906;2023-02-28T01:13:51;12.63;;;9.10;;
52210;SDS011;38179;52.756;6.906;2023-02-28T01:16:18;17.98;;;8.63;;
52210;SDS011;38179;52.756;6.906;2023-02-28T01:18:43;13.73;;;9.38;;
52210;SDS011;38179;52.756;6.906;2023-02-28T01:21:12;15.60;;;8.85;;
52210;SDS011;38179;52.756;6.906;2023-02-28T01:23:42;12.85;;;9.48;;
52210;SDS011;38179;52.756;6.906;2023-02-28T01:26:13;11.73;;;8.70;;
52210;SDS011;38179;52.756;6.906;2023-02-28T01:28:40;13.15;;;8.35;;
52210;SDS011;38179;52.756;6.906;2023-02-28T01:31:06;12.63;;;8.57;;
52210;SDS011;38179;52.756;6.906;2023-02-28T01:33:33;11.65;;;8.75;;
52210;SDS011;38179;52.756;6.906;2023-02-28T01:36:12;12.13;;;9.20;;
52210;SDS011;38179;52.756;6.906;2023-02-28T01:38:40;12.65;;;9.27;;
52210;SDS011;38179;52.756;6.906;2023-02-28T01:41:06;11.00;;;8.75;;
52210;SDS011;38179;52.756;6.906;2023-02-28T01:46:08;14.48;;;9.20;;
52210;SDS011;38179;52.756;6.906;2023-02-28T01:48:35;12.65;;;8.48;;
52210;SDS011;38179;52.756;6.906;2023-02-28T01:51:06;10.57;;;8.02;;
52210;SDS011;38179;52.756;6.906;2023-02-28T01:53:45;16.55;;;8.82;;
52210;SDS011;38179;52.756;6.906;2023-02-28T01:56:26;11.40;;;8.60;;
52210;SDS011;38179;52.756;6.906;2023-02-28T01:58:55;11.20;;;8.95;;
52210;SDS011;38179;52.756;6.906;2023-02-28T02:01:22;11.38;;;8.82;;
52210;SDS011;38179;52.756;6.906;2023-02-28T02:03:53;16.55;;;9.90;;
52210;SDS011;38179;52.756;6.906;2023-02-28T02:06:31;13.60;;;9.48;;
52210;SDS011;38179;52.756;6.906;2023-02-28T02:09:02;12.07;;;9.00;;
52210;SDS011;38179;52.756;6.906;2023-02-28T02:11:28;11.10;;;8.93;;
52210;SDS011;38179;52.756;6.906;2023-02-28T02:33:58;12.18;;;9.32;;
52210;SDS011;38179;52.756;6.906;2023-02-28T02:36:51;14.30;;;9.77;;
52210;SDS011;38179;52.756;6.906;2023-02-28T02:39:21;16.80;;;10.38;;
52210;SDS011;38179;52.756;6.906;2023-02-28T02:41:53;15.43;;;10.82;;
52210;SDS011;38179;52.756;6.906;2023-02-28T02:47:06;15.60;;;10.75;;
52210;SDS011;38179;52.756;6.906;2023-02-28T02:49:36;13.98;;;10.30;;
52210;SDS011;38179;52.756;6.906;2023-02-28T02:52:04;14.73;;;10.57;;
52210;SDS011;38179;52.756;6.906;2023-02-28T02:57:01;14.68;;;10.20;;
52210;SDS011;38179;52.756;6.906;2023-02-28T02:59:31;16.27;;;10.40;;
52210;SDS011;38179;52.756;6.906;2023-02-28T03:02:02;14.63;;;10.85;;
52210;SDS011;38179;52.756;6.906;2023-02-28T03:04:32;16.00;;;10.65;;
52210;SDS011;38179;52.756;6.906;2023-02-28T03:07:05;18.90;;;11.25;;
52210;SDS011;38179;52.756;6.906;2023-02-28T03:09:32;15.82;;;10.43;;
52210;SDS011;38179;52.756;6.906;2023-02-28T03:12:00;17.58;;;11.48;;
52210;SDS011;38179;52.756;6.906;2023-02-28T03:25:54;16.83;;;11.40;;
52210;SDS011;38179;52.756;6.906;2023-02-28T03:28:32;14.05;;;10.48;;
52210;SDS011;38179;52.756;6.906;2023-02-28T03:33:38;15.32;;;10.73;;
52210;SDS011;38179;52.756;6.906;2023-02-28T03:36:13;16.13;;;11.50;;
52210;SDS011;38179;52.756;6.906;2023-02-28T03:38:49;14.55;;;11.45;;
52210;SDS011;38179;52.756;6.906;2023-02-28T03:41:37;15.10;;;10.30;;
52210;SDS011;38179;52.756;6.906;2023-02-28T03:44:09;13.27;;;10.20;;
52210;SDS011;38179;52.756;6.906;2023-02-28T03:46:42;11.70;;;9.93;;
52210;SDS011;38179;52.756;6.906;2023-02-28T03:49:32;15.38;;;10.68;;
52210;SDS011;38179;52.756;6.906;2023-02-28T03:52:27;17.35;;;11.70;;
52210;SDS011;38179;52.756;6.906;2023-02-28T03:54:59;13.45;;;10.73;;
52210;SDS011;38179;52.756;6.906;2023-02-28T03:57:48;16.20;;;11.32;;
52210;SDS011;38179;52.756;6.906;2023-02-28T04:00:39;18.40;;;11.13;;
52210;SDS011;38179;52.756;6.906;2023-02-28T04:03:10;17.08;;;11.50;;
52210;SDS011;38179;52.756;6.906;2023-02-28T04:05:46;14.18;;;10.85;;
52210;SDS011;38179;52.756;6.906;2023-02-28T04:08:18;15.40;;;10.85;;
52210;SDS011;38179;52.756;6.906;2023-02-28T04:10:45;15.18;;;11.20;;
52210;SDS011;38179;52.756;6.906;2023-02-28T04:13:18;15.80;;;11.02;;
52210;SDS011;38179;52.756;6.906;2023-02-28T04:15:44;14.60;;;11.25;;
52210;SDS011;38179;52.756;6.906;2023-02-28T04:18:10;17.08;;;11.25;;
52210;SDS011;38179;52.756;6.906;2023-02-28T04:20:36;23.00;;;10.98;;
52210;SDS011;38179;52.756;6.906;2023-02-28T04:23:02;17.05;;;11.60;;
52210;SDS011;38179;52.756;6.906;2023-02-28T04:25:28;15.63;;;11.27;;
52210;SDS011;38179;52.756;6.906;2023-02-28T04:27:53;13.00;;;10.82;;
52210;SDS011;38179;52.756;6.906;2023-02-28T04:30:19;17.38;;;12.50;;
52210;SDS011;38179;52.756;6.906;2023-02-28T04:32:45;16.80;;;12.60;;
52210;SDS011;38179;52.756;6.906;2023-02-28T04:35:11;12.80;;;10.75;;
52210;SDS011;38179;52.756;6.906;2023-02-28T04:37:37;14.15;;;11.15;;
52210;SDS011;38179;52.756;6.906;2023-02-28T04:40:04;15.43;;;10.57;;
52210;SDS011;38179;52.756;6.906;2023-02-28T04:45:07;14.50;;;10.95;;
52210;SDS011;38179;52.756;6.906;2023-02-28T04:47:36;16.42;;;11.85;;
52210;SDS011;38179;52.756;6.906;2023-02-28T04:50:02;15.45;;;11.38;;
52210;SDS011;38179;52.756;6.906;2023-02-28T04:52:28;14.07;;;11.27;;
52210;SDS011;38179;52.756;6.906;2023-02-28T04:54:54;15.00;;;10.55;;
52210;SDS011;38179;52.756;6.906;2023-02-28T04:57:20;15.88;;;11.10;;
52210;SDS011;38179;52.756;6.906;2023-02-28T04:59:46;15.70;;;11.02;;
52210;SDS011;38179;52.756;6.906;2023-02-28T05:02:12;16.85;;;11.60;;
52210;SDS011;38179;52.756;6.906;2023-02-28T05:04:38;17.83;;;12.68;;
52210;SDS011;38179;52.756;6.906;2023-02-28T05:07:04;15.73;;;11.40;;
52210;SDS011;38179;52.756;6.906;2023-02-28T05:09:32;17.23;;;11.63;;
52210;SDS011;38179;52.756;6.906;2023-02-28T05:11:58;19.13;;;11.77;;
52210;SDS011;38179;52.756;6.906;2023-02-28T05:14:27;17.75;;;11.40;;
52210;SDS011;38179;52.756;6.906;2023-02-28T05:16:53;13.63;;;11.32;;
52210;SDS011;38179;52.756;6.906;2023-02-28T05:19:19;17.58;;;11.40;;
52210;SDS011;38179;52.756;6.906;2023-02-28T05:21:53;14.65;;;11.50;;
52210;SDS011;38179;52.756;6.906;2023-02-28T05:24:20;17.35;;;11.48;;
52210;SDS011;38179;52.756;6.906;2023-02-28T05:26:49;15.77;;;11.10;;
52210;SDS011;38179;52.756;6.906;2023-02-28T05:29:17;19.17;;;11.55;;
52210;SDS011;38179;52.756;6.906;2023-02-28T05:31:42;14.35;;;11.60;;
52210;SDS011;38179;52.756;6.906;2023-02-28T05:34:08;13.60;;;10.82;;
52210;SDS011;38179;52.756;6.906;2023-02-28T05:36:37;14.25;;;11.02;;
52210;SDS011;38179;52.756;6.906;2023-02-28T05:39:05;15.60;;;11.60;;
52210;SDS011;38179;52.756;6.906;2023-02-28T05:41:37;14.93;;;11.15;;
52210;SDS011;38179;52.756;6.906;2023-02-28T05:44:07;13.35;;;11.10;;
52210;SDS011;38179;52.756;6.906;2023-02-28T05:46:33;14.48;;;11.52;;
52210;SDS011;38179;52.756;6.906;2023-02-28T05:48:59;14.40;;;10.88;;
52210;SDS011;38179;52.756;6.906;2023-02-28T05:51:25;17.02;;;11.57;;
52210;SDS011;38179;52.756;6.906;2023-02-28T05:53:51;14.50;;;11.13;;
52210;SDS011;38179;52.756;6.906;2023-02-28T05:56:17;14.63;;;11.27;;
52210;SDS011;38179;52.756;6.906;2023-02-28T05:58:43;15.18;;;10.77;;
52210;SDS011;38179;52.756;6.906;2023-02-28T06:01:20;13.30;;;10.95;;
52210;SDS011;38179;52.756;6.906;2023-02-28T06:03:47;16.48;;;10.60;;
52210;SDS011;38179;52.756;6.906;2023-02-28T06:06:13;17.20;;;10.50;;
52210;SDS011;38179;52.756;6.906;2023-02-28T06:08:39;12.60;;;10.70;;
52210;SDS011;38179;52.756;6.906;2023-02-28T06:11:05;13.88;;;11.40;;
52210;SDS011;38179;52.756;6.906;2023-02-28T06:13:31;14.73;;;10.68;;
52210;SDS011;38179;52.756;6.906;2023-02-28T06:16:00;13.40;;;10.82;;
52210;SDS011;38179;52.756;6.906;2023-02-28T06:18:26;13.60;;;10.30;;
52210;SDS011;38179;52.756;6.906;2023-02-28T06:20:52;14.57;;;10.35;;
52210;SDS011;38179;52.756;6.906;2023-02-28T06:23:19;13.48;;;10.77;;
52210;SDS011;38179;52.756;6.906;2023-02-28T06:25:46;16.50;;;10.63;;
52210;SDS011;38179;52.756;6.906;2023-02-28T06:28:14;15.10;;;10.90;;
52210;SDS011;38179;52.756;6.906;2023-02-28T06:30:40;12.77;;;10.07;;
52210;SDS011;38179;52.756;6.906;2023-02-28T06:33:06;13.75;;;10.70;;
52210;SDS011;38179;52.756;6.906;2023-02-28T06:35:31;13.82;;;10.32;;
52210;SDS011;38179;52.756;6.906;2023-02-28T06:37:57;11.57;;;10.38;;
52210;SDS011;38179;52.756;6.906;2023-02-28T06:40:23;15.20;;;11.23;;
52210;SDS011;38179;52.756;6.906;2023-02-28T06:42:49;14.48;;;10.90;;
52210;SDS011;38179;52.756;6.906;2023-02-28T06:45:15;14.05;;;10.43;;
52210;SDS011;38179;52.756;6.906;2023-02-28T06:47:41;14.65;;;11.35;;
52210;SDS011;38179;52.756;6.906;2023-02-28T06:50:11;12.13;;;10.52;;
52210;SDS011;38179;52.756;6.906;2023-02-28T06:52:38;13.95;;;11.43;;
52210;SDS011;38179;52.756;6.906;2023-02-28T06:55:04;15.55;;;11.90;;
52210;SDS011;38179;52.756;6.906;2023-02-28T06:57:32;13.82;;;11.23;;
52210;SDS011;38179;52.756;6.906;2023-02-28T07:00:00;15.57;;;11.45;;
52210;SDS011;38179;52.756;6.906;2023-02-28T07:02:28;16.17;;;11.50;;
52210;SDS011;38179;52.756;6.906;2023-02-28T07:04:54;15.73;;;10.95;;
52210;SDS011;38179;52.756;6.906;2023-02-28T07:07:20;13.60;;;10.60;;
52210;SDS011;38179;52.756;6.906;2023-02-28T07:09:46;17.02;;;11.80;;
52210;SDS011;38179;52.756;6.906;2023-02-28T07:12:12;13.57;;;10.63;;
52210;SDS011;38179;52.756;6.906;2023-02-28T07:14:38;14.30;;;10.93;;
52210;SDS011;38179;52.756;6.906;2023-02-28T07:17:03;14.15;;;11.68;;
52210;SDS011;38179;52.756;6.906;2023-02-28T07:19:31;12.85;;;10.75;;
52210;SDS011;38179;52.756;6.906;2023-02-28T07:21:57;11.65;;;10.45;;
52210;SDS011;38179;52.756;6.906;2023-02-28T07:24:24;13.15;;;10.32;;
52210;SDS011;38179;52.756;6.906;2023-02-28T07:26:53;12.85;;;10.77;;
52210;SDS011;38179;52.756;6.906;2023-02-28T07:29:19;13.82;;;11.30;;
52210;SDS011;38179;52.756;6.906;2023-02-28T07:31:45;15.95;;;10.80;;
52210;SDS011;38179;52.756;6.906;2023-02-28T07:34:12;15.95;;;10.88;;
52210;SDS011;38179;52.756;6.906;2023-02-28T07:36:38;12.77;;;10.82;;
52210;SDS011;38179;52.756;6.906;2023-02-28T07:39:05;15.43;;;11.13;;
52210;SDS011;38179;52.756;6.906;2023-02-28T07:41:31;14.65;;;11.77;;
52210;SDS011;38179;52.756;6.906;2023-02-28T07:43:59;13.60;;;10.75;;
52210;SDS011;38179;52.756;6.906;2023-02-28T07:46:25;12.68;;;10.27;;
52210;SDS011;38179;52.756;6.906;2023-02-28T07:48:52;11.75;;;10.07;;
52210;SDS011;38179;52.756;6.906;2023-02-28T07:51:19;17.33;;;11.00;;
52210;SDS011;38179;52.756;6.906;2023-02-28T07:53:45;13.20;;;10.65;;
52210;SDS011;38179;52.756;6.906;2023-02-28T07:56:11;15.23;;;11.52;;
52210;SDS011;38179;52.756;6.906;2023-02-28T07:58:37;13.40;;;10.70;;
52210;SDS011;38179;52.756;6.906;2023-02-28T08:01:07;13.27;;;10.80;;
52210;SDS011;38179;52.756;6.906;2023-02-28T08:03:34;14.45;;;11.05;;
52210;SDS011;38179;52.756;6.906;2023-02-28T08:06:02;14.70;;;11.35;;
52210;SDS011;38179;52.756;6.906;2023-02-28T08:08:29;13.18;;;10.43;;
52210;SDS011;38179;52.756;6.906;2023-02-28T08:10:59;13.07;;;10.98;;
52210;SDS011;38179;52.756;6.906;2023-02-28T08:13:27;12.98;;;11.05;;
52210;SDS011;38179;52.756;6.906;2023-02-28T08:15:54;13.38;;;11.73;;
52210;SDS011;38179;52.756;6.906;2023-02-28T08:18:20;14.63;;;11.38;;
52210;SDS011;38179;52.756;6.906;2023-02-28T08:20:47;16.75;;;11.32;;
52210;SDS011;38179;52.756;6.906;2023-02-28T08:23:13;13.63;;;12.18;;
52210;SDS011;38179;52.756;6.906;2023-02-28T08:25:39;16.30;;;12.35;;
52210;SDS011;38179;52.756;6.906;2023-02-28T08:28:05;15.23;;;12.52;;
52210;SDS011;38179;52.756;6.906;2023-02-28T08:30:31;13.75;;;12.05;;
52210;SDS011;38179;52.756;6.906;2023-02-28T08:32:57;15.05;;;11.85;;
52210;SDS011;38179;52.756;6.906;2023-02-28T08:35:23;15.98;;;12.15;;
52210;SDS011;38179;52.756;6.906;2023-02-28T08:37:49;14.73;;;11.82;;
52210;SDS011;38179;52.756;6.906;2023-02-28T08:40:15;18.27;;;13.55;;
52210;SDS011;38179;52.756;6.906;2023-02-28T08:42:46;20.98;;;12.80;;
52210;SDS011;38179;52.756;6.906;2023-02-28T08:45:13;15.93;;;13.30;;
52210;SDS011;38179;52.756;6.906;2023-02-28T08:47:40;14.70;;;12.23;;
52210;SDS011;38179;52.756;6.906;2023-02-28T08:50:07;16.48;;;11.40;;
52210;SDS011;38179;52.756;6.906;2023-02-28T08:52:33;14.52;;;11.43;;
52210;SDS011;38179;52.756;6.906;2023-02-28T08:54:59;15.88;;;10.20;;
52210;SDS011;38179;52.756;6.906;2023-02-28T08:57:25;15.70;;;10.75;;
52210;SDS011;38179;52.756;6.906;2023-02-28T08:59:52;15.07;;;10.70;;
52210;SDS011;38179;52.756;6.906;2023-02-28T09:02:18;13.43;;;10.45;;
52210;SDS011;38179;52.756;6.906;2023-02-28T09:04:44;11.98;;;10.13;;
52210;SDS011;38179;52.756;6.906;2023-02-28T09:07:11;12.93;;;9.55;;
52210;SDS011;38179;52.756;6.906;2023-02-28T09:09:37;11.02;;;7.60;;
52210;SDS011;38179;52.756;6.906;2023-02-28T09:12:21;8.95;;;7.55;;
52210;SDS011;38179;52.756;6.906;2023-02-28T09:17:13;8.10;;;6.30;;
52210;SDS011;38179;52.756;6.906;2023-02-28T09:19:40;8.50;;;6.60;;
52210;SDS011;38179;52.756;6.906;2023-02-28T09:22:06;7.72;;;6.35;;
52210;SDS011;38179;52.756;6.906;2023-02-28T09:24:31;8.32;;;6.20;;
52210;SDS011;38179;52.756;6.906;2023-02-28T09:26:57;9.30;;;6.38;;
52210;SDS011;38179;52.756;6.906;2023-02-28T09:29:23;9.05;;;6.50;;
52210;SDS011;38179;52.756;6.906;2023-02-28T09:31:49;8.30;;;7.20;;
52210;SDS011;38179;52.756;6.906;2023-02-28T09:34:15;7.18;;;6.20;;
52210;SDS011;38179;52.756;6.906;2023-02-28T09:36:42;8.00;;;6.80;;
52210;SDS011;38179;52.756;6.906;2023-02-28T09:39:08;7.57;;;6.78;;
52210;SDS011;38179;52.756;6.906;2023-02-28T09:41:38;7.78;;;6.28;;
52210;SDS011;38179;52.756;6.906;2023-02-28T09:47:21;9.00;;;6.60;;
52210;SDS011;38179;52.756;6.906;2023-02-28T09:50:16;9.30;;;6.88;;
52210;SDS011;38179;52.756;6.906;2023-02-28T09:52:50;8.40;;;6.75;;
52210;SDS011;38179;52.756;6.906;2023-02-28T09:57:44;8.30;;;6.53;;
52210;SDS011;38179;52.756;6.906;2023-02-28T10:05:30;8.32;;;6.40;;
52210;SDS011;38179;52.756;6.906;2023-02-28T10:10:40;7.72;;;6.68;;
52210;SDS011;38179;52.756;6.906;2023-02-28T10:16:06;6.90;;;6.20;;
52210;SDS011;38179;52.756;6.906;2023-02-28T10:18:41;8.82;;;6.55;;
52210;SDS011;38179;52.756;6.906;2023-02-28T10:21:23;7.07;;;6.20;;
52210;SDS011;38179;52.756;6.906;2023-02-28T10:24:30;7.13;;;6.25;;
52210;SDS011;38179;52.756;6.906;2023-02-28T10:26:52;8.60;;;6.07;;
52210;SDS011;38179;52.756;6.906;2023-02-28T10:29:24;7.72;;;6.07;;
52210;SDS011;38179;52.756;6.906;2023-02-28T10:31:51;8.88;;;6.25;;
52210;SDS011;38179;52.756;6.906;2023-02-28T10:34:17;8.18;;;5.85;;
52210;SDS011;38179;52.756;6.906;2023-02-28T10:36:43;8.45;;;6.70;;
52210;SDS011;38179;52.756;6.906;2023-02-28T10:42:04;7.80;;;7.00;;
52210;SDS011;38179;52.756;6.906;2023-02-28T10:44:43;7.18;;;6.38;;
52210;SDS011;38179;52.756;6.906;2023-02-28T10:47:14;7.43;;;6.38;;
52210;SDS011;38179;52.756;6.906;2023-02-28T10:49:48;7.68;;;6.60;;
52210;SDS011;38179;52.756;6.906;2023-02-28T10:52:32;7.43;;;6.63;;
52210;SDS011;38179;52.756;6.906;2023-02-28T10:55:21;8.10;;;6.50;;
52210;SDS011;38179;52.756;6.906;2023-02-28T10:57:50;7.95;;;6.63;;
52210;SDS011;38179;52.756;6.906;2023-02-28T11:02:46;7.47;;;6.68;;
52210;SDS011;38179;52.756;6.906;2023-02-28T11:05:35;7.00;;;6.30;;
52210;SDS011;38179;52.756;6.906;2023-02-28T11:10:46;7.57;;;6.65;;
52210;SDS011;38179;52.756;6.906;2023-02-28T11:13:20;8.65;;;6.53;;
52210;SDS011;38179;52.756;6.906;2023-02-28T11:15:51;7.50;;;6.57;;
52210;SDS011;38179;52.756;6.906;2023-02-28T11:21:03;7.15;;;6.45;;
52210;SDS011;38179;52.756;6.906;2023-02-28T11:23:30;8.25;;;6.95;;
52210;SDS011;38179;52.756;6.906;2023-02-28T11:26:00;8.52;;;7.18;;
52210;SDS011;38179;52.756;6.906;2023-02-28T11:28:31;9.07;;;6.88;;
52210;SDS011;38179;52.756;6.906;2023-02-28T11:33:49;7.78;;;6.97;;
52210;SDS011;38179;52.756;6.906;2023-02-28T11:36:24;7.65;;;6.82;;
52210;SDS011;38179;52.756;6.906;2023-02-28T11:39:07;7.95;;;7.15;;
52210;SDS011;38179;52.756;6.906;2023-02-28T11:44:48;9.02;;;7.07;;
52210;SDS011;38179;52.756;6.906;2023-02-28T11:52:45;9.15;;;7.63;;
52210;SDS011;38179;52.756;6.906;2023-02-28T12:00:39;9.30;;;7.47;;
52210;SDS011;38179;52.756;6.906;2023-02-28T12:03:13;8.57;;;7.68;;
52210;SDS011;38179;52.756;6.906;2023-02-28T12:06:00;8.43;;;7.55;;
52210;SDS011;38179;52.756;6.906;2023-02-28T12:11:53;9.63;;;8.20;;
52210;SDS011;38179;52.756;6.906;2023-02-28T12:17:39;7.68;;;6.90;;
52210;SDS011;38179;52.756;6.906;2023-02-28T12:26:00;9.05;;;8.07;;
52210;SDS011;38179;52.756;6.906;2023-02-28T12:28:43;9.55;;;7.80;;
52210;SDS011;38179;52.756;6.906;2023-02-28T12:31:17;9.82;;;8.32;;
52210;SDS011;38179;52.756;6.906;2023-02-28T12:33:53;8.55;;;7.65;;
52210;SDS011;38179;52.756;6.906;2023-02-28T12:36:22;10.10;;;7.72;;
52210;SDS011;38179;52.756;6.906;2023-02-28T12:38:53;8.00;;;7.20;;
52210;SDS011;38179;52.756;6.906;2023-02-28T12:44:12;9.40;;;8.02;;
52210;SDS011;38179;52.756;6.906;2023-02-28T12:46:49;8.65;;;7.40;;
52210;SDS011;38179;52.756;6.906;2023-02-28T12:49:19;8.57;;;7.55;;
52210;SDS011;38179;52.756;6.906;2023-02-28T12:51:50;18.08;;;12.88;;
52210;SDS011;38179;52.756;6.906;2023-02-28T12:59:36;9.80;;;8.05;;
52210;SDS011;38179;52.756;6.906;2023-02-28T13:05:19;9.82;;;7.65;;
52210;SDS011;38179;52.756;6.906;2023-02-28T13:10:44;8.45;;;7.28;;
52210;SDS011;38179;52.756;6.906;2023-02-28T13:13:17;8.48;;;7.68;;
52210;SDS011;38179;52.756;6.906;2023-02-28T13:21:02;8.48;;;7.68;;
52210;SDS011;38179;52.756;6.906;2023-02-28T13:23:38;8.38;;;7.18;;
52210;SDS011;38179;52.756;6.906;2023-02-28T13:34:33;8.48;;;7.57;;
52210;SDS011;38179;52.756;6.906;2023-02-28T13:39:54;8.05;;;7.25;;
52210;SDS011;38179;52.756;6.906;2023-02-28T13:47:30;8.27;;;7.32;;
52210;SDS011;38179;52.756;6.906;2023-02-28T13:56:43;8.27;;;7.38;;
52210;SDS011;38179;52.756;6.906;2023-02-28T14:07:49;8.07;;;7.28;;
52210;SDS011;38179;52.756;6.906;2023-02-28T14:10:24;7.32;;;6.63;;
52210;SDS011;38179;52.756;6.906;2023-02-28T14:35:01;7.82;;;7.03;;
52210;SDS011;38179;52.756;6.906;2023-02-28T14:37:29;7.95;;;6.93;;
52210;SDS011;38179;52.756;6.906;2023-02-28T14:39:58;8.73;;;7.18;;
52210;SDS011;38179;52.756;6.906;2023-02-28T14:44:56;8.50;;;7.13;;
52210;SDS011;38179;52.756;6.906;2023-02-28T14:47:22;8.50;;;7.50;;
52210;SDS011;38179;52.756;6.906;2023-02-28T14:49:51;8.50;;;7.10;;
52210;SDS011;38179;52.756;6.906;2023-02-28T14:52:22;8.85;;;7.25;;
52210;SDS011;38179;52.756;6.906;2023-02-28T14:54:54;9.82;;;7.15;;
52210;SDS011;38179;52.756;6.906;2023-02-28T15:00:00;9.73;;;7.00;;
52210;SDS011;38179;52.756;6.906;2023-02-28T15:02:37;7.97;;;7.18;;
52210;SDS011;38179;52.756;6.906;2023-02-28T15:05:26;8.00;;;7.15;;
52210;SDS011;38179;52.756;6.906;2023-02-28T15:08:00;8.02;;;7.22;;
52210;SDS011;38179;52.756;6.906;2023-02-28T15:10:29;7.82;;;7.03;;
52210;SDS011;38179;52.756;6.906;2023-02-28T15:15:46;8.05;;;7.25;;
52210;SDS011;38179;52.756;6.906;2023-02-28T15:18:20;9.20;;;7.20;;
52210;SDS011;38179;52.756;6.906;2023-02-28T15:20:51;8.40;;;7.53;;
52210;SDS011;38179;52.756;6.906;2023-02-28T15:23:18;7.90;;;7.10;;
52210;SDS011;38179;52.756;6.906;2023-02-28T15:25:46;7.75;;;6.75;;
52210;SDS011;38179;52.756;6.906;2023-02-28T15:28:15;7.95;;;7.13;;
52210;SDS011;38179;52.756;6.906;2023-02-28T15:30:55;8.40;;;7.53;;
52210;SDS011;38179;52.756;6.906;2023-02-28T15:33:22;8.07;;;7.28;;
52210;SDS011;38179;52.756;6.906;2023-02-28T15:35:51;11.38;;;7.15;;
52210;SDS011;38179;52.756;6.906;2023-02-28T15:38:38;8.23;;;7.43;;
52210;SDS011;38179;52.756;6.906;2023-02-28T15:41:04;8.77;;;7.40;;
52210;SDS011;38179;52.756;6.906;2023-02-28T15:43:36;8.65;;;7.55;;
52210;SDS011;38179;52.756;6.906;2023-02-28T15:46:11;8.90;;;7.30;;
52210;SDS011;38179;52.756;6.906;2023-02-28T15:48:51;7.97;;;7.22;;
52210;SDS011;38179;52.756;6.906;2023-02-28T15:51:22;8.35;;;7.03;;
52210;SDS011;38179;52.756;6.906;2023-02-28T15:53:56;8.23;;;7.20;;
52210;SDS011;38179;52.756;6.906;2023-02-28T15:56:31;7.53;;;6.80;;
52210;SDS011;38179;52.756;6.906;2023-02-28T15:59:05;8.27;;;7.13;;
52210;SDS011;38179;52.756;6.906;2023-02-28T16:01:34;9.35;;;7.70;;
52210;SDS011;38179;52.756;6.906;2023-02-28T16:04:06;8.00;;;7.20;;
52210;SDS011;38179;52.756;6.906;2023-02-28T16:06:40;8.55;;;7.47;;
52210;SDS011;38179;52.756;6.906;2023-02-28T16:09:14;8.27;;;7.32;;
52210;SDS011;38179;52.756;6.906;2023-02-28T16:11:50;9.07;;;7.65;;
52210;SDS011;38179;52.756;6.906;2023-02-28T16:14:24;10.48;;;7.93;;
52210;SDS011;38179;52.756;6.906;2023-02-28T16:16:57;9.43;;;7.60;;
52210;SDS011;38179;52.756;6.906;2023-02-28T16:19:33;9.38;;;7.70;;
52210;SDS011;38179;52.756;6.906;2023-02-28T16:22:00;8.20;;;7.38;;
52210;SDS011;38179;52.756;6.906;2023-02-28T16:24:26;8.10;;;7.30;;
52210;SDS011;38179;52.756;6.906;2023-02-28T16:26:52;8.60;;;7.70;;
52210;SDS011;38179;52.756;6.906;2023-02-28T16:29:27;11.85;;;7.35;;
52210;SDS011;38179;52.756;6.906;2023-02-28T16:31:56;12.43;;;7.93;;
52210;SDS011;38179;52.756;6.906;2023-02-28T16:34:22;11.30;;;7.95;;
52210;SDS011;38179;52.756;6.906;2023-02-28T16:36:49;8.60;;;7.50;;
52210;SDS011;38179;52.756;6.906;2023-02-28T16:39:15;11.63;;;8.05;;
52210;SDS011;38179;52.756;6.906;2023-02-28T16:41:44;11.77;;;7.72;;
52210;SDS011;38179;52.756;6.906;2023-02-28T16:44:19;11.05;;;7.45;;
52210;SDS011;38179;52.756;6.906;2023-02-28T16:46:51;8.45;;;7.50;;
52210;SDS011;38179;52.756;6.906;2023-02-28T16:49:17;8.55;;;7.65;;
52210;SDS011;38179;52.756;6.906;2023-02-28T16:51:43;9.45;;;8.02;;
52210;SDS011;38179;52.756;6.906;2023-02-28T16:54:09;10.52;;;7.70;;
52210;SDS011;38179;52.756;6.906;2023-02-28T16:56:42;9.55;;;8.30;;
52210;SDS011;38179;52.756;6.906;2023-02-28T16:59:11;9.40;;;7.47;;
52210;SDS011;38179;52.756;6.906;2023-02-28T17:01:38;11.70;;;7.78;;
52210;SDS011;38179;52.756;6.906;2023-02-28T17:04:04;10.65;;;8.20;;
52210;SDS011;38179;52.756;6.906;2023-02-28T17:06:30;9.85;;;7.55;;
52210;SDS011;38179;52.756;6.906;2023-02-28T17:08:57;8.68;;;7.07;;
52210;SDS011;38179;52.756;6.906;2023-02-28T17:11:24;10.07;;;7.85;;
52210;SDS011;38179;52.756;6.906;2023-02-28T17:13:51;10.30;;;7.72;;
52210;SDS011;38179;52.756;6.906;2023-02-28T17:19:04;9.60;;;7.75;;
52210;SDS011;38179;52.756;6.906;2023-02-28T17:21:32;11.18;;;8.10;;
52210;SDS011;38179;52.756;6.906;2023-02-28T17:23:59;8.68;;;7.78;;
52210;SDS011;38179;52.756;6.906;2023-02-28T17:26:25;10.80;;;7.88;;
52210;SDS011;38179;52.756;6.906;2023-02-28T17:28:53;9.48;;;8.18;;
52210;SDS011;38179;52.756;6.906;2023-02-28T17:31:23;10.43;;;7.90;;
52210;SDS011;38179;52.756;6.906;2023-02-28T17:33:50;9.32;;;7.20;;
52210;SDS011;38179;52.756;6.906;2023-02-28T17:36:17;8.63;;;7.70;;
52210;SDS011;38179;52.756;6.906;2023-02-28T17:38:51;10.20;;;7.47;;
52210;SDS011;38179;52.756;6.906;2023-02-28T17:41:18;9.45;;;7.85;;
52210;SDS011;38179;52.756;6.906;2023-02-28T17:43:44;9.85;;;7.75;;
52210;SDS011;38179;52.756;6.906;2023-02-28T17:46:16;9.20;;;7.50;;
52210;SDS011;38179;52.756;6.906;2023-02-28T17:48:48;9.88;;;7.57;;
52210;SDS011;38179;52.756;6.906;2023-02-28T17:51:15;10.88;;;7.70;;
52210;SDS011;38179;52.756;6.906;2023-02-28T17:53:43;8.93;;;7.47;;